sensor_id;sensor_type;location;lat;lon;timestamp;P1;durP1;ratioP1;P2;durP2;ratioP2
8260;SDS011;64115;50.170;8.242;2023-06-19T00:02:07;4.93;;;4.43;;
8260;SDS011;64115;50.170;8.242;2023-06-19T00:04:34;5.00;;;4.60;;
8260;SDS011;64115;50.170;8.242;2023-06-19T00:07:01;5.20;;;4.80;;
8260;SDS011;64115;50.170;8.242;2023-06-19T00:09:31;4.73;;;4.40;;
8260;SDS011;64115;50.170;8.242;2023-06-19T00:11:58;5.00;;;4.50;;
8260;SDS011;64115;50.170;8.242;2023-06-19T00:14:26;4.60;;;4.30;;
8260;SDS011;64115;50.170;8.242;2023-06-19T00:16:53;4.83;;;4.43;;
8260;SDS011;64115;50.170;8.242;2023-06-19T00:19:20;4.17;;;3.87;;
8260;SDS011;64115;50.170;8.242;2023-06-19T00:21:46;4.87;;;4.47;;
8260;SDS011;64115;50.170;8.242;2023-06-19T00:24:13;4.73;;;4.33;;
8260;SDS011;64115;50.170;8.242;2023-06-19T00:26:41;5.37;;;4.87;;
8260;SDS011;64115;50.170;8.242;2023-06-19T00:29:08;4.90;;;4.50;;
8260;SDS011;64115;50.170;8.242;2023-06-19T00:31:35;4.90;;;4.50;;
8260;SDS011;64115;50.170;8.242;2023-06-19T00:34:02;4.60;;;4.30;;
8260;SDS011;64115;50.170;8.242;2023-06-19T00:36:29;5.07;;;4.67;;
8260;SDS011;64115;50.170;8.242;2023-06-19T00:38:55;4.87;;;4.47;;
8260;SDS011;64115;50.170;8.242;2023-06-19T00:41:22;5.47;;;4.97;;
8260;SDS011;64115;50.170;8.242;2023-06-19T00:43:54;5.57;;;5.13;;
8260;SDS011;64115;50.170;8.242;2023-06-19T00:46:20;5.67;;;5.17;;
8260;SDS011;64115;50.170;8.242;2023-06-19T00:48:47;5.43;;;4.93;;
8260;SDS011;64115;50.170;8.242;2023-06-19T00:51:14;5.70;;;5.30;;
8260;SDS011;64115;50.170;8.242;2023-06-19T00:53:41;5.53;;;5.13;;
8260;SDS011;64115;50.170;8.242;2023-06-19T00:56:08;6.13;;;5.63;;
8260;SDS011;64115;50.170;8.242;2023-06-19T00:58:35;5.43;;;4.93;;
8260;SDS011;64115;50.170;8.242;2023-06-19T01:01:03;5.80;;;5.30;;
8260;SDS011;64115;50.170;8.242;2023-06-19T01:03:30;6.07;;;5.10;;
8260;SDS011;64115;50.170;8.242;2023-06-19T01:05:57;5.83;;;5.33;;
8260;SDS011;64115;50.170;8.242;2023-06-19T01:08:33;6.00;;;5.50;;
8260;SDS011;64115;50.170;8.242;2023-06-19T01:11:09;5.57;;;5.17;;
8260;SDS011;64115;50.170;8.242;2023-06-19T01:13:38;5.50;;;5.10;;
8260;SDS011;64115;50.170;8.242;2023-06-19T01:16:12;5.80;;;5.40;;
8260;SDS011;64115;50.170;8.242;2023-06-19T01:18:41;5.40;;;4.97;;
8260;SDS011;64115;50.170;8.242;2023-06-19T01:21:09;6.23;;;5.40;;
8260;SDS011;64115;50.170;8.242;2023-06-19T01:23:38;5.40;;;4.97;;
8260;SDS011;64115;50.170;8.242;2023-06-19T01:26:05;5.50;;;5.10;;
8260;SDS011;64115;50.170;8.242;2023-06-19T01:28:33;5.20;;;4.87;;
8260;SDS011;64115;50.170;8.242;2023-06-19T01:31:01;5.10;;;4.60;;
8260;SDS011;64115;50.170;8.242;2023-06-19T01:33:32;5.40;;;5.00;;
8260;SDS011;64115;50.170;8.242;2023-06-19T01:36:02;5.40;;;5.00;;
8260;SDS011;64115;50.170;8.242;2023-06-19T01:38:29;5.50;;;5.00;;
8260;SDS011;64115;50.170;8.242;2023-06-19T01:40:59;5.23;;;4.83;;
8260;SDS011;64115;50.170;8.242;2023-06-19T01:43:28;5.17;;;4.77;;
8260;SDS011;64115;50.170;8.242;2023-06-19T01:45:56;4.90;;;4.50;;
8260;SDS011;64115;50.170;8.242;2023-06-19T01:48:23;4.67;;;4.37;;
8260;SDS011;64115;50.170;8.242;2023-06-19T01:50:50;5.07;;;4.67;;
8260;SDS011;64115;50.170;8.242;2023-06-19T01:53:17;4.70;;;4.40;;
8260;SDS011;64115;50.170;8.242;2023-06-19T01:55:46;5.07;;;4.67;;
8260;SDS011;64115;50.170;8.242;2023-06-19T01:58:15;4.90;;;4.60;;
8260;SDS011;64115;50.170;8.242;2023-06-19T02:00:41;5.23;;;4.83;;
8260;SDS011;64115;50.170;8.242;2023-06-19T02:03:08;5.13;;;4.63;;
8260;SDS011;64115;50.170;8.242;2023-06-19T02:05:35;5.43;;;5.03;;
8260;SDS011;64115;50.170;8.242;2023-06-19T02:08:04;4.87;;;4.47;;
8260;SDS011;64115;50.170;8.242;2023-06-19T02:10:31;5.07;;;4.73;;
8260;SDS011;64115;50.170;8.242;2023-06-19T02:12:58;5.07;;;4.67;;
8260;SDS011;64115;50.170;8.242;2023-06-19T02:15:26;4.97;;;4.57;;
8260;SDS011;64115;50.170;8.242;2023-06-19T02:17:53;5.53;;;5.13;;
8260;SDS011;64115;50.170;8.242;2023-06-19T02:20:21;5.23;;;4.83;;
8260;SDS011;64115;50.170;8.242;2023-06-19T02:22:50;5.67;;;5.27;;
8260;SDS011;64115;50.170;8.242;2023-06-19T02:25:18;5.37;;;4.87;;
8260;SDS011;64115;50.170;8.242;2023-06-19T02:27:44;5.37;;;4.90;;
8260;SDS011;64115;50.170;8.242;2023-06-19T02:30:12;5.43;;;5.00;;
8260;SDS011;64115;50.170;8.242;2023-06-19T02:32:41;4.80;;;4.50;;
8260;SDS011;64115;50.170;8.242;2023-06-19T02:35:09;5.40;;;5.00;;
8260;SDS011;64115;50.170;8.242;2023-06-19T02:37:37;5.20;;;4.80;;
8260;SDS011;64115;50.170;8.242;2023-06-19T02:40:04;5.13;;;4.77;;
8260;SDS011;64115;50.170;8.242;2023-06-19T02:42:33;5.00;;;4.60;;
8260;SDS011;64115;50.170;8.242;2023-06-19T02:45:00;5.40;;;5.00;;
8260;SDS011;64115;50.170;8.242;2023-06-19T02:47:29;5.03;;;4.63;;
8260;SDS011;64115;50.170;8.242;2023-06-19T02:49:57;5.10;;;4.70;;
8260;SDS011;64115;50.170;8.242;2023-06-19T02:52:25;5.00;;;4.70;;
8260;SDS011;64115;50.170;8.242;2023-06-19T02:54:51;5.23;;;4.83;;
8260;SDS011;64115;50.170;8.242;2023-06-19T02:57:18;4.80;;;4.50;;
8260;SDS011;64115;50.170;8.242;2023-06-19T02:59:45;4.80;;;4.50;;
8260;SDS011;64115;50.170;8.242;2023-06-19T03:02:12;5.00;;;4.60;;
8260;SDS011;64115;50.170;8.242;2023-06-19T03:04:39;5.00;;;4.60;;
8260;SDS011;64115;50.170;8.242;2023-06-19T03:07:08;5.00;;;4.70;;
8260;SDS011;64115;50.170;8.242;2023-06-19T03:09:38;4.93;;;4.43;;
8260;SDS011;64115;50.170;8.242;2023-06-19T03:12:05;4.70;;;4.40;;
8260;SDS011;64115;50.170;8.242;2023-06-19T03:14:33;4.40;;;4.10;;
8260;SDS011;64115;50.170;8.242;2023-06-19T03:17:00;4.30;;;4.00;;
8260;SDS011;64115;50.170;8.242;2023-06-19T03:19:26;4.53;;;4.23;;
8260;SDS011;64115;50.170;8.242;2023-06-19T03:21:53;4.70;;;4.40;;
8260;SDS011;64115;50.170;8.242;2023-06-19T03:24:21;4.40;;;4.10;;
8260;SDS011;64115;50.170;8.242;2023-06-19T03:26:48;4.60;;;4.30;;
8260;SDS011;64115;50.170;8.242;2023-06-19T03:29:15;4.50;;;4.20;;
8260;SDS011;64115;50.170;8.242;2023-06-19T03:31:41;4.43;;;4.13;;
8260;SDS011;64115;50.170;8.242;2023-06-19T03:34:08;4.10;;;3.90;;
8260;SDS011;64115;50.170;8.242;2023-06-19T03:36:35;4.30;;;4.00;;
8260;SDS011;64115;50.170;8.242;2023-06-19T03:39:02;3.77;;;3.40;;
8260;SDS011;64115;50.170;8.242;2023-06-19T03:41:30;3.57;;;3.27;;
8260;SDS011;64115;50.170;8.242;2023-06-19T03:43:57;3.13;;;2.93;;
8260;SDS011;64115;50.170;8.242;2023-06-19T03:46:23;3.20;;;3.00;;
8260;SDS011;64115;50.170;8.242;2023-06-19T03:48:50;3.47;;;3.00;;
8260;SDS011;64115;50.170;8.242;2023-06-19T03:51:17;3.30;;;3.10;;
8260;SDS011;64115;50.170;8.242;2023-06-19T03:53:43;2.80;;;2.70;;
8260;SDS011;64115;50.170;8.242;2023-06-19T03:56:10;3.60;;;3.30;;
8260;SDS011;64115;50.170;8.242;2023-06-19T03:58:38;3.13;;;2.93;;
8260;SDS011;64115;50.170;8.242;2023-06-19T04:01:05;3.40;;;3.10;;
8260;SDS011;64115;50.170;8.242;2023-06-19T04:03:32;3.20;;;3.00;;
8260;SDS011;64115;50.170;8.242;2023-06-19T04:05:59;3.37;;;3.07;;
8260;SDS011;64115;50.170;8.242;2023-06-19T04:08:25;3.80;;;3.40;;
8260;SDS011;64115;50.170;8.242;2023-06-19T04:10:52;3.40;;;3.20;;
8260;SDS011;64115;50.170;8.242;2023-06-19T04:13:19;3.20;;;3.00;;
8260;SDS011;64115;50.170;8.242;2023-06-19T04:15:47;3.33;;;3.13;;
8260;SDS011;64115;50.170;8.242;2023-06-19T04:18:14;3.73;;;3.43;;
8260;SDS011;64115;50.170;8.242;2023-06-19T04:20:41;3.37;;;3.17;;
8260;SDS011;64115;50.170;8.242;2023-06-19T04:23:07;3.33;;;3.13;;
8260;SDS011;64115;50.170;8.242;2023-06-19T04:25:34;3.40;;;3.10;;
8260;SDS011;64115;50.170;8.242;2023-06-19T04:28:01;3.37;;;3.17;;
8260;SDS011;64115;50.170;8.242;2023-06-19T04:30:28;3.10;;;2.90;;
8260;SDS011;64115;50.170;8.242;2023-06-19T04:32:58;4.43;;;3.10;;
8260;SDS011;64115;50.170;8.242;2023-06-19T04:35:25;3.70;;;2.83;;
8260;SDS011;64115;50.170;8.242;2023-06-19T04:37:52;3.47;;;3.27;;
8260;SDS011;64115;50.170;8.242;2023-06-19T04:40:19;3.40;;;3.20;;
8260;SDS011;64115;50.170;8.242;2023-06-19T04:42:46;3.10;;;2.90;;
8260;SDS011;64115;50.170;8.242;2023-06-19T04:45:13;3.40;;;3.10;;
8260;SDS011;64115;50.170;8.242;2023-06-19T04:47:40;3.03;;;2.83;;
8260;SDS011;64115;50.170;8.242;2023-06-19T04:50:08;3.47;;;3.27;;
8260;SDS011;64115;50.170;8.242;2023-06-19T04:52:35;3.57;;;3.00;;
8260;SDS011;64115;50.170;8.242;2023-06-19T04:55:02;3.03;;;2.83;;
8260;SDS011;64115;50.170;8.242;2023-06-19T04:57:30;3.47;;;3.17;;
8260;SDS011;64115;50.170;8.242;2023-06-19T04:59:57;3.20;;;3.00;;
8260;SDS011;64115;50.170;8.242;2023-06-19T05:02:24;3.47;;;3.20;;
8260;SDS011;64115;50.170;8.242;2023-06-19T05:04:51;3.10;;;2.87;;
8260;SDS011;64115;50.170;8.242;2023-06-19T05:07:19;3.83;;;2.87;;
8260;SDS011;64115;50.170;8.242;2023-06-19T05:09:45;2.87;;;2.73;;
8260;SDS011;64115;50.170;8.242;2023-06-19T05:12:12;3.00;;;2.80;;
8260;SDS011;64115;50.170;8.242;2023-06-19T05:14:39;3.00;;;2.80;;
8260;SDS011;64115;50.170;8.242;2023-06-19T05:17:06;2.40;;;2.30;;
8260;SDS011;64115;50.170;8.242;2023-06-19T05:19:34;2.43;;;2.33;;
8260;SDS011;64115;50.170;8.242;2023-06-19T05:22:01;2.60;;;2.37;;
8260;SDS011;64115;50.170;8.242;2023-06-19T05:24:29;2.70;;;2.60;;
8260;SDS011;64115;50.170;8.242;2023-06-19T05:26:55;2.70;;;2.33;;
8260;SDS011;64115;50.170;8.242;2023-06-19T05:29:22;2.30;;;2.20;;
8260;SDS011;64115;50.170;8.242;2023-06-19T05:31:49;2.73;;;2.50;;
8260;SDS011;64115;50.170;8.242;2023-06-19T05:34:19;3.30;;;2.43;;
8260;SDS011;64115;50.170;8.242;2023-06-19T05:36:47;2.70;;;2.50;;
8260;SDS011;64115;50.170;8.242;2023-06-19T05:39:14;2.30;;;2.20;;
8260;SDS011;64115;50.170;8.242;2023-06-19T05:41:45;2.40;;;2.20;;
8260;SDS011;64115;50.170;8.242;2023-06-19T05:44:12;2.47;;;2.37;;
8260;SDS011;64115;50.170;8.242;2023-06-19T05:46:40;2.43;;;2.33;;
8260;SDS011;64115;50.170;8.242;2023-06-19T05:49:07;2.70;;;2.40;;
8260;SDS011;64115;50.170;8.242;2023-06-19T05:51:34;2.47;;;2.27;;
8260;SDS011;64115;50.170;8.242;2023-06-19T05:54:01;2.50;;;2.40;;
8260;SDS011;64115;50.170;8.242;2023-06-19T05:56:28;2.70;;;2.53;;
8260;SDS011;64115;50.170;8.242;2023-06-19T05:58:56;2.57;;;2.40;;
8260;SDS011;64115;50.170;8.242;2023-06-19T06:01:23;2.63;;;2.53;;
8260;SDS011;64115;50.170;8.242;2023-06-19T06:03:52;4.03;;;3.80;;
8260;SDS011;64115;50.170;8.242;2023-06-19T06:06:20;2.90;;;2.70;;
8260;SDS011;64115;50.170;8.242;2023-06-19T06:08:47;2.60;;;2.43;;
8260;SDS011;64115;50.170;8.242;2023-06-19T06:11:13;2.30;;;2.20;;
8260;SDS011;64115;50.170;8.242;2023-06-19T06:13:40;2.30;;;2.20;;
8260;SDS011;64115;50.170;8.242;2023-06-19T06:16:09;2.13;;;2.03;;
8260;SDS011;64115;50.170;8.242;2023-06-19T06:18:36;2.57;;;2.37;;
8260;SDS011;64115;50.170;8.242;2023-06-19T06:21:02;2.70;;;2.40;;
8260;SDS011;64115;50.170;8.242;2023-06-19T06:23:31;2.17;;;2.07;;
8260;SDS011;64115;50.170;8.242;2023-06-19T06:25:58;2.30;;;2.17;;
8260;SDS011;64115;50.170;8.242;2023-06-19T06:28:27;1.90;;;1.80;;
8260;SDS011;64115;50.170;8.242;2023-06-19T06:30:54;2.03;;;1.90;;
8260;SDS011;64115;50.170;8.242;2023-06-19T06:33:22;2.63;;;2.20;;
8260;SDS011;64115;50.170;8.242;2023-06-19T06:35:49;2.17;;;2.07;;
8260;SDS011;64115;50.170;8.242;2023-06-19T06:38:16;2.00;;;1.90;;
8260;SDS011;64115;50.170;8.242;2023-06-19T06:40:43;2.10;;;2.00;;
8260;SDS011;64115;50.170;8.242;2023-06-19T06:43:10;2.03;;;1.93;;
8260;SDS011;64115;50.170;8.242;2023-06-19T06:45:36;2.43;;;2.20;;
8260;SDS011;64115;50.170;8.242;2023-06-19T06:48:04;2.10;;;2.00;;
8260;SDS011;64115;50.170;8.242;2023-06-19T06:50:33;2.20;;;2.10;;
8260;SDS011;64115;50.170;8.242;2023-06-19T06:53:00;2.13;;;2.03;;
8260;SDS011;64115;50.170;8.242;2023-06-19T06:55:27;2.20;;;2.10;;
8260;SDS011;64115;50.170;8.242;2023-06-19T06:57:54;2.30;;;2.13;;
8260;SDS011;64115;50.170;8.242;2023-06-19T07:00:21;2.37;;;2.00;;
8260;SDS011;64115;50.170;8.242;2023-06-19T07:02:48;2.17;;;2.07;;
8260;SDS011;64115;50.170;8.242;2023-06-19T07:05:16;4.20;;;2.10;;
8260;SDS011;64115;50.170;8.242;2023-06-19T07:07:44;2.23;;;2.13;;
8260;SDS011;64115;50.170;8.242;2023-06-19T07:10:11;2.10;;;2.00;;
8260;SDS011;64115;50.170;8.242;2023-06-19T07:12:45;2.40;;;2.30;;
8260;SDS011;64115;50.170;8.242;2023-06-19T07:15:13;2.43;;;2.23;;
8260;SDS011;64115;50.170;8.242;2023-06-19T07:17:40;2.37;;;2.27;;
8260;SDS011;64115;50.170;8.242;2023-06-19T07:20:07;2.50;;;2.40;;
8260;SDS011;64115;50.170;8.242;2023-06-19T07:22:34;2.47;;;2.37;;
8260;SDS011;64115;50.170;8.242;2023-06-19T07:25:03;2.50;;;2.40;;
8260;SDS011;64115;50.170;8.242;2023-06-19T07:27:31;2.33;;;2.23;;
8260;SDS011;64115;50.170;8.242;2023-06-19T07:29:58;2.80;;;2.60;;
8260;SDS011;64115;50.170;8.242;2023-06-19T07:32:24;2.70;;;2.60;;
8260;SDS011;64115;50.170;8.242;2023-06-19T07:34:53;3.13;;;2.93;;
8260;SDS011;64115;50.170;8.242;2023-06-19T07:37:20;2.70;;;2.60;;
8260;SDS011;64115;50.170;8.242;2023-06-19T07:39:47;2.70;;;2.60;;
8260;SDS011;64115;50.170;8.242;2023-06-19T07:42:16;2.80;;;2.70;;
8260;SDS011;64115;50.170;8.242;2023-06-19T07:44:44;2.80;;;2.60;;
8260;SDS011;64115;50.170;8.242;2023-06-19T07:47:12;3.30;;;3.10;;
8260;SDS011;64115;50.170;8.242;2023-06-19T07:49:39;3.10;;;2.90;;
8260;SDS011;64115;50.170;8.242;2023-06-19T07:52:06;3.07;;;2.87;;
8260;SDS011;64115;50.170;8.242;2023-06-19T07:54:35;3.70;;;3.00;;
8260;SDS011;64115;50.170;8.242;2023-06-19T07:57:02;3.00;;;2.90;;
8260;SDS011;64115;50.170;8.242;2023-06-19T07:59:30;3.17;;;2.97;;
8260;SDS011;64115;50.170;8.242;2023-06-19T08:01:57;3.17;;;3.00;;
8260;SDS011;64115;50.170;8.242;2023-06-19T08:04:24;3.30;;;3.10;;
8260;SDS011;64115;50.170;8.242;2023-06-19T08:06:50;2.90;;;2.70;;
8260;SDS011;64115;50.170;8.242;2023-06-19T08:09:17;3.30;;;3.10;;
8260;SDS011;64115;50.170;8.242;2023-06-19T08:11:44;3.57;;;3.33;;
8260;SDS011;64115;50.170;8.242;2023-06-19T08:14:11;3.20;;;3.00;;
8260;SDS011;64115;50.170;8.242;2023-06-19T08:16:39;3.30;;;2.80;;
8260;SDS011;64115;50.170;8.242;2023-06-19T08:19:05;3.03;;;2.93;;
8260;SDS011;64115;50.170;8.242;2023-06-19T08:21:32;3.30;;;3.10;;
8260;SDS011;64115;50.170;8.242;2023-06-19T08:23:59;3.30;;;3.10;;
8260;SDS011;64115;50.170;8.242;2023-06-19T08:26:25;3.60;;;3.40;;
8260;SDS011;64115;50.170;8.242;2023-06-19T08:28:52;3.37;;;3.07;;
8260;SDS011;64115;50.170;8.242;2023-06-19T08:31:19;4.00;;;3.80;;
8260;SDS011;64115;50.170;8.242;2023-06-19T08:33:48;3.43;;;3.23;;
8260;SDS011;64115;50.170;8.242;2023-06-19T08:36:14;6.03;;;3.50;;
8260;SDS011;64115;50.170;8.242;2023-06-19T08:38:41;3.67;;;3.40;;
8260;SDS011;64115;50.170;8.242;2023-06-19T08:41:08;4.00;;;3.70;;
8260;SDS011;64115;50.170;8.242;2023-06-19T08:43:34;3.30;;;3.10;;
8260;SDS011;64115;50.170;8.242;2023-06-19T08:46:06;3.63;;;3.33;;
8260;SDS011;64115;50.170;8.242;2023-06-19T08:48:36;3.40;;;3.10;;
8260;SDS011;64115;50.170;8.242;2023-06-19T08:51:05;3.43;;;3.13;;
8260;SDS011;64115;50.170;8.242;2023-06-19T08:53:33;3.90;;;3.50;;
8260;SDS011;64115;50.170;8.242;2023-06-19T08:56:03;3.20;;;3.00;;
8260;SDS011;64115;50.170;8.242;2023-06-19T08:58:30;3.20;;;3.00;;
8260;SDS011;64115;50.170;8.242;2023-06-19T09:00:57;3.20;;;3.00;;
8260;SDS011;64115;50.170;8.242;2023-06-19T09:03:24;3.53;;;3.33;;
8260;SDS011;64115;50.170;8.242;2023-06-19T09:05:51;2.97;;;2.83;;
8260;SDS011;64115;50.170;8.242;2023-06-19T09:08:19;2.87;;;2.67;;
8260;SDS011;64115;50.170;8.242;2023-06-19T09:10:54;3.00;;;2.80;;
8260;SDS011;64115;50.170;8.242;2023-06-19T09:13:22;2.90;;;2.80;;
8260;SDS011;64115;50.170;8.242;2023-06-19T09:15:57;3.10;;;2.90;;
8260;SDS011;64115;50.170;8.242;2023-06-19T09:18:26;2.73;;;2.50;;
8260;SDS011;64115;50.170;8.242;2023-06-19T09:20:54;2.60;;;2.40;;
8260;SDS011;64115;50.170;8.242;2023-06-19T09:23:23;2.83;;;2.73;;
8260;SDS011;64115;50.170;8.242;2023-06-19T09:25:50;3.00;;;2.80;;
8260;SDS011;64115;50.170;8.242;2023-06-19T09:28:18;2.73;;;2.47;;
8260;SDS011;64115;50.170;8.242;2023-06-19T09:30:52;2.70;;;2.50;;
8260;SDS011;64115;50.170;8.242;2023-06-19T09:33:21;2.80;;;2.60;;
8260;SDS011;64115;50.170;8.242;2023-06-19T09:35:48;3.37;;;2.43;;
8260;SDS011;64115;50.170;8.242;2023-06-19T09:38:16;2.93;;;2.83;;
8260;SDS011;64115;50.170;8.242;2023-06-19T09:40:45;2.60;;;2.50;;
8260;SDS011;64115;50.170;8.242;2023-06-19T09:43:14;3.03;;;2.80;;
8260;SDS011;64115;50.170;8.242;2023-06-19T09:45:45;2.80;;;2.60;;
8260;SDS011;64115;50.170;8.242;2023-06-19T09:48:17;3.20;;;2.90;;
8260;SDS011;64115;50.170;8.242;2023-06-19T09:50:46;3.00;;;2.80;;
8260;SDS011;64115;50.170;8.242;2023-06-19T09:53:14;2.90;;;2.70;;
8260;SDS011;64115;50.170;8.242;2023-06-19T09:55:41;2.80;;;2.60;;
8260;SDS011;64115;50.170;8.242;2023-06-19T09:58:10;2.60;;;2.50;;
8260;SDS011;64115;50.170;8.242;2023-06-19T10:00:37;3.27;;;3.07;;
8260;SDS011;64115;50.170;8.242;2023-06-19T10:03:04;2.80;;;2.70;;
8260;SDS011;64115;50.170;8.242;2023-06-19T10:05:37;2.43;;;2.27;;
8260;SDS011;64115;50.170;8.242;2023-06-19T10:08:05;2.70;;;2.50;;
8260;SDS011;64115;50.170;8.242;2023-06-19T10:10:33;2.50;;;2.40;;
8260;SDS011;64115;50.170;8.242;2023-06-19T10:13:12;2.90;;;2.70;;
8260;SDS011;64115;50.170;8.242;2023-06-19T10:15:40;2.70;;;2.50;;
8260;SDS011;64115;50.170;8.242;2023-06-19T10:18:13;2.90;;;2.70;;
8260;SDS011;64115;50.170;8.242;2023-06-19T10:20:42;3.87;;;2.77;;
8260;SDS011;64115;50.170;8.242;2023-06-19T10:23:12;3.03;;;2.87;;
8260;SDS011;64115;50.170;8.242;2023-06-19T10:25:43;3.30;;;3.10;;
8260;SDS011;64115;50.170;8.242;2023-06-19T10:28:18;3.00;;;2.80;;
8260;SDS011;64115;50.170;8.242;2023-06-19T10:30:51;3.30;;;3.10;;
8260;SDS011;64115;50.170;8.242;2023-06-19T10:33:19;2.90;;;2.80;;
8260;SDS011;64115;50.170;8.242;2023-06-19T10:35:46;3.27;;;3.17;;
8260;SDS011;64115;50.170;8.242;2023-06-19T10:38:14;2.97;;;2.77;;
8260;SDS011;64115;50.170;8.242;2023-06-19T10:40:41;3.30;;;3.10;;
8260;SDS011;64115;50.170;8.242;2023-06-19T10:43:09;2.90;;;2.80;;
8260;SDS011;64115;50.170;8.242;2023-06-19T10:45:37;3.13;;;2.93;;
8260;SDS011;64115;50.170;8.242;2023-06-19T10:48:04;3.13;;;2.87;;
8260;SDS011;64115;50.170;8.242;2023-06-19T10:50:33;3.27;;;3.03;;
8260;SDS011;64115;50.170;8.242;2023-06-19T10:53:03;4.23;;;3.30;;
8260;SDS011;64115;50.170;8.242;2023-06-19T10:55:30;3.27;;;3.00;;
8260;SDS011;64115;50.170;8.242;2023-06-19T10:57:57;3.47;;;3.13;;
8260;SDS011;64115;50.170;8.242;2023-06-19T11:00:24;3.40;;;3.20;;
8260;SDS011;64115;50.170;8.242;2023-06-19T11:02:54;3.40;;;3.20;;
8260;SDS011;64115;50.170;8.242;2023-06-19T11:05:22;2.90;;;2.73;;
8260;SDS011;64115;50.170;8.242;2023-06-19T11:07:53;2.90;;;2.70;;
8260;SDS011;64115;50.170;8.242;2023-06-19T11:10:21;2.77;;;2.57;;
8260;SDS011;64115;50.170;8.242;2023-06-19T11:12:48;2.80;;;2.60;;
8260;SDS011;64115;50.170;8.242;2023-06-19T11:15:16;2.80;;;2.70;;
8260;SDS011;64115;50.170;8.242;2023-06-19T11:17:42;2.87;;;2.67;;
8260;SDS011;64115;50.170;8.242;2023-06-19T11:20:12;3.20;;;2.90;;
8260;SDS011;64115;50.170;8.242;2023-06-19T11:22:41;2.70;;;2.60;;
8260;SDS011;64115;50.170;8.242;2023-06-19T11:25:08;2.90;;;2.80;;
8260;SDS011;64115;50.170;8.242;2023-06-19T11:27:39;3.10;;;2.90;;
8260;SDS011;64115;50.170;8.242;2023-06-19T11:30:06;2.70;;;2.60;;
8260;SDS011;64115;50.170;8.242;2023-06-19T11:32:35;2.93;;;2.73;;
8260;SDS011;64115;50.170;8.242;2023-06-19T11:35:06;2.90;;;2.70;;
8260;SDS011;64115;50.170;8.242;2023-06-19T11:37:39;3.53;;;3.20;;
8260;SDS011;64115;50.170;8.242;2023-06-19T11:40:07;3.87;;;3.00;;
8260;SDS011;64115;50.170;8.242;2023-06-19T11:42:46;3.20;;;3.00;;
8260;SDS011;64115;50.170;8.242;2023-06-19T11:45:13;2.90;;;2.70;;
8260;SDS011;64115;50.170;8.242;2023-06-19T11:47:40;3.10;;;2.90;;
8260;SDS011;64115;50.170;8.242;2023-06-19T11:50:09;3.20;;;2.90;;
8260;SDS011;64115;50.170;8.242;2023-06-19T11:52:37;3.40;;;3.10;;
8260;SDS011;64115;50.170;8.242;2023-06-19T11:55:04;3.07;;;2.70;;
8260;SDS011;64115;50.170;8.242;2023-06-19T11:57:32;3.30;;;3.00;;
8260;SDS011;64115;50.170;8.242;2023-06-19T11:59:59;3.43;;;2.73;;
8260;SDS011;64115;50.170;8.242;2023-06-19T12:02:26;3.63;;;2.83;;
8260;SDS011;64115;50.170;8.242;2023-06-19T12:04:53;4.63;;;2.80;;
8260;SDS011;64115;50.170;8.242;2023-06-19T12:07:19;3.30;;;3.10;;
8260;SDS011;64115;50.170;8.242;2023-06-19T12:09:47;3.13;;;2.87;;
8260;SDS011;64115;50.170;8.242;2023-06-19T12:12:14;2.73;;;2.60;;
8260;SDS011;64115;50.170;8.242;2023-06-19T12:14:41;3.23;;;3.00;;
8260;SDS011;64115;50.170;8.242;2023-06-19T12:17:08;3.17;;;2.97;;
8260;SDS011;64115;50.170;8.242;2023-06-19T12:19:36;3.10;;;2.80;;
8260;SDS011;64115;50.170;8.242;2023-06-19T12:22:04;2.93;;;2.73;;
8260;SDS011;64115;50.170;8.242;2023-06-19T12:24:31;3.20;;;3.00;;
8260;SDS011;64115;50.170;8.242;2023-06-19T12:26:59;5.40;;;2.80;;
8260;SDS011;64115;50.170;8.242;2023-06-19T12:29:26;2.87;;;2.70;;
8260;SDS011;64115;50.170;8.242;2023-06-19T12:31:58;3.00;;;2.90;;
8260;SDS011;64115;50.170;8.242;2023-06-19T12:34:26;2.93;;;2.80;;
8260;SDS011;64115;50.170;8.242;2023-06-19T12:36:53;2.63;;;2.53;;
8260;SDS011;64115;50.170;8.242;2023-06-19T12:39:22;2.93;;;2.70;;
8260;SDS011;64115;50.170;8.242;2023-06-19T12:41:49;2.50;;;2.40;;
8260;SDS011;64115;50.170;8.242;2023-06-19T12:44:18;2.93;;;2.70;;
8260;SDS011;64115;50.170;8.242;2023-06-19T12:46:45;3.03;;;2.83;;
8260;SDS011;64115;50.170;8.242;2023-06-19T12:49:11;3.00;;;2.80;;
8260;SDS011;64115;50.170;8.242;2023-06-19T12:51:38;2.93;;;2.80;;
8260;SDS011;64115;50.170;8.242;2023-06-19T12:54:05;2.93;;;2.80;;
8260;SDS011;64115;50.170;8.242;2023-06-19T12:56:32;3.17;;;2.97;;
8260;SDS011;64115;50.170;8.242;2023-06-19T12:58:58;3.70;;;2.73;;
8260;SDS011;64115;50.170;8.242;2023-06-19T13:01:27;2.93;;;2.80;;
8260;SDS011;64115;50.170;8.242;2023-06-19T13:03:53;2.90;;;2.70;;
8260;SDS011;64115;50.170;8.242;2023-06-19T13:06:20;2.90;;;2.80;;
8260;SDS011;64115;50.170;8.242;2023-06-19T13:08:47;3.10;;;2.90;;
8260;SDS011;64115;50.170;8.242;2023-06-19T13:11:14;3.23;;;3.03;;
8260;SDS011;64115;50.170;8.242;2023-06-19T13:13:40;2.87;;;2.77;;
8260;SDS011;64115;50.170;8.242;2023-06-19T13:16:07;3.57;;;3.20;;
8260;SDS011;64115;50.170;8.242;2023-06-19T13:18:35;2.97;;;2.77;;
8260;SDS011;64115;50.170;8.242;2023-06-19T13:21:02;3.00;;;2.80;;
8260;SDS011;64115;50.170;8.242;2023-06-19T13:23:29;3.00;;;2.70;;
8260;SDS011;64115;50.170;8.242;2023-06-19T13:25:56;2.67;;;2.47;;
8260;SDS011;64115;50.170;8.242;2023-06-19T13:28:23;2.97;;;2.77;;
8260;SDS011;64115;50.170;8.242;2023-06-19T13:30:50;3.40;;;3.20;;
8260;SDS011;64115;50.170;8.242;2023-06-19T13:33:17;3.00;;;2.80;;
8260;SDS011;64115;50.170;8.242;2023-06-19T13:35:45;3.30;;;3.10;;
8260;SDS011;64115;50.170;8.242;2023-06-19T13:38:12;2.70;;;2.60;;
8260;SDS011;64115;50.170;8.242;2023-06-19T13:40:40;2.60;;;2.50;;
8260;SDS011;64115;50.170;8.242;2023-06-19T13:43:07;2.93;;;2.73;;
8260;SDS011;64115;50.170;8.242;2023-06-19T13:45:34;3.20;;;3.00;;
8260;SDS011;64115;50.170;8.242;2023-06-19T13:48:03;2.73;;;2.63;;
8260;SDS011;64115;50.170;8.242;2023-06-19T13:50:30;3.13;;;2.93;;
8260;SDS011;64115;50.170;8.242;2023-06-19T13:52:59;3.07;;;2.87;;
8260;SDS011;64115;50.170;8.242;2023-06-19T13:55:26;3.40;;;3.10;;
8260;SDS011;64115;50.170;8.242;2023-06-19T13:57:53;3.03;;;2.83;;
8260;SDS011;64115;50.170;8.242;2023-06-19T14:00:19;2.87;;;2.67;;
8260;SDS011;64115;50.170;8.242;2023-06-19T14:02:46;3.67;;;2.63;;
8260;SDS011;64115;50.170;8.242;2023-06-19T14:05:14;3.60;;;2.60;;
8260;SDS011;64115;50.170;8.242;2023-06-19T14:07:41;2.77;;;2.67;;
8260;SDS011;64115;50.170;8.242;2023-06-19T14:10:10;3.20;;;2.90;;
8260;SDS011;64115;50.170;8.242;2023-06-19T14:12:37;3.30;;;2.80;;
8260;SDS011;64115;50.170;8.242;2023-06-19T14:15:05;2.70;;;2.60;;
8260;SDS011;64115;50.170;8.242;2023-06-19T14:17:32;3.60;;;3.07;;
8260;SDS011;64115;50.170;8.242;2023-06-19T14:19:59;2.90;;;2.70;;
8260;SDS011;64115;50.170;8.242;2023-06-19T14:22:26;2.73;;;2.53;;
8260;SDS011;64115;50.170;8.242;2023-06-19T14:24:53;3.00;;;2.80;;
8260;SDS011;64115;50.170;8.242;2023-06-19T14:27:25;3.50;;;2.63;;
8260;SDS011;64115;50.170;8.242;2023-06-19T14:29:52;2.80;;;2.63;;
8260;SDS011;64115;50.170;8.242;2023-06-19T14:32:20;3.03;;;2.83;;
8260;SDS011;64115;50.170;8.242;2023-06-19T14:34:48;2.80;;;2.60;;
8260;SDS011;64115;50.170;8.242;2023-06-19T14:37:15;3.63;;;2.93;;
8260;SDS011;64115;50.170;8.242;2023-06-19T14:39:42;3.30;;;3.10;;
8260;SDS011;64115;50.170;8.242;2023-06-19T14:42:08;2.80;;;2.70;;
8260;SDS011;64115;50.170;8.242;2023-06-19T14:44:37;2.47;;;2.33;;
8260;SDS011;64115;50.170;8.242;2023-06-19T14:47:04;2.40;;;2.30;;
8260;SDS011;64115;50.170;8.242;2023-06-19T14:49:31;2.83;;;2.73;;
8260;SDS011;64115;50.170;8.242;2023-06-19T14:52:01;4.00;;;3.00;;
8260;SDS011;64115;50.170;8.242;2023-06-19T14:54:28;2.63;;;2.40;;
8260;SDS011;64115;50.170;8.242;2023-06-19T14:56:55;2.43;;;2.33;;
8260;SDS011;64115;50.170;8.242;2023-06-19T14:59:21;2.40;;;2.20;;
8260;SDS011;64115;50.170;8.242;2023-06-19T15:01:50;4.13;;;2.77;;
8260;SDS011;64115;50.170;8.242;2023-06-19T15:04:16;3.67;;;3.37;;